sensor_id;sensor_type;location;lat;lon;timestamp;P1;durP1;ratioP1;P2;durP2;ratioP2
21010;SDS011;10663;42.714;23.274;2023-11-25T01:51:36;6.00;;;3.05;;
21010;SDS011;10663;42.714;23.274;2023-11-25T01:53:09;4.22;;;2.97;;
21010;SDS011;10663;42.714;23.274;2023-11-25T01:54:40;4.90;;;2.88;;
21010;SDS011;10663;42.714;23.274;2023-11-25T01:56:11;4.33;;;3.00;;
21010;SDS011;10663;42.714;23.274;2023-11-25T01:57:44;4.10;;;2.83;;
21010;SDS011;10663;42.714;23.274;2023-11-25T01:59:17;5.88;;;3.10;;
21010;SDS011;10663;42.714;23.274;2023-11-25T02:00:50;3.90;;;2.90;;
21010;SDS011;10663;42.714;23.274;2023-11-25T02:02:22;3.72;;;2.70;;
21010;SDS011;10663;42.714;23.274;2023-11-25T02:03:59;3.63;;;2.75;;
21010;SDS011;10663;42.714;23.274;2023-11-25T02:05:29;3.05;;;2.38;;
21010;SDS011;10663;42.714;23.274;2023-11-25T02:07:03;2.30;;;2.10;;
21010;SDS011;10663;42.714;23.274;2023-11-25T02:08:35;3.55;;;2.38;;
21010;SDS011;10663;42.714;23.274;2023-11-25T02:10:06;2.20;;;2.00;;
21010;SDS011;10663;42.714;23.274;2023-11-25T02:11:53;2.70;;;2.20;;
21010;SDS011;10663;42.714;23.274;2023-11-25T02:13:30;2.10;;;1.80;;
21010;SDS011;10663;42.714;23.274;2023-11-25T02:15:01;2.20;;;2.00;;
21010;SDS011;10663;42.714;23.274;2023-11-25T02:16:34;2.05;;;1.95;;
21010;SDS011;10663;42.714;23.274;2023-11-25T02:18:05;2.07;;;1.70;;
21010;SDS011;10663;42.714;23.274;2023-11-25T02:19:37;2.70;;;1.85;;
21010;SDS011;10663;42.714;23.274;2023-11-25T02:21:08;1.77;;;1.67;;
21010;SDS011;10663;42.714;23.274;2023-11-25T02:22:50;1.92;;;1.73;;
21010;SDS011;10663;42.714;23.274;2023-11-25T02:24:25;3.30;;;1.90;;
21010;SDS011;10663;42.714;23.274;2023-11-25T02:26:00;2.42;;;2.08;;
21010;SDS011;10663;42.714;23.274;2023-11-25T02:27:30;2.83;;;1.90;;
21010;SDS011;10663;42.714;23.274;2023-11-25T02:29:01;3.47;;;1.83;;
21010;SDS011;10663;42.714;23.274;2023-11-25T02:30:32;2.78;;;1.90;;
21010;SDS011;10663;42.714;23.274;2023-11-25T02:32:03;2.58;;;1.90;;
21010;SDS011;10663;42.714;23.274;2023-11-25T02:33:34;1.70;;;1.60;;
21010;SDS011;10663;42.714;23.274;2023-11-25T02:35:05;2.13;;;1.88;;
21010;SDS011;10663;42.714;23.274;2023-11-25T02:36:37;1.95;;;1.70;;
21010;SDS011;10663;42.714;23.274;2023-11-25T02:38:09;2.00;;;1.33;;
21010;SDS011;10663;42.714;23.274;2023-11-25T02:39:41;2.25;;;1.92;;
21010;SDS011;10663;42.714;23.274;2023-11-25T02:41:12;1.90;;;1.70;;
21010;SDS011;10663;42.714;23.274;2023-11-25T02:42:43;1.70;;;1.60;;
21010;SDS011;10663;42.714;23.274;2023-11-25T02:44:18;3.83;;;2.00;;
21010;SDS011;10663;42.714;23.274;2023-11-25T02:45:49;2.67;;;2.08;;
21010;SDS011;10663;42.714;23.274;2023-11-25T02:47:19;3.60;;;2.10;;
21010;SDS011;10663;42.714;23.274;2023-11-25T02:48:50;4.13;;;2.30;;
21010;SDS011;10663;42.714;23.274;2023-11-25T02:50:21;2.50;;;1.95;;
21010;SDS011;10663;42.714;23.274;2023-11-25T02:51:52;3.42;;;1.83;;
21010;SDS011;10663;42.714;23.274;2023-11-25T02:53:26;2.75;;;1.75;;
21010;SDS011;10663;42.714;23.274;2023-11-25T02:55:00;3.22;;;1.55;;
21010;SDS011;10663;42.714;23.274;2023-11-25T02:56:31;1.95;;;1.48;;
21010;SDS011;10663;42.714;23.274;2023-11-25T02:58:02;2.92;;;1.50;;
21010;SDS011;10663;42.714;23.274;2023-11-25T02:59:34;1.83;;;1.47;;
21010;SDS011;10663;42.714;23.274;2023-11-25T03:01:05;2.37;;;1.47;;
21010;SDS011;10663;42.714;23.274;2023-11-25T03:02:38;2.25;;;1.40;;
21010;SDS011;10663;42.714;23.274;2023-11-25T03:05:41;1.85;;;1.45;;
21010;SDS011;10663;42.714;23.274;2023-11-25T03:07:16;2.27;;;1.20;;
21010;SDS011;10663;42.714;23.274;2023-11-25T03:08:49;1.80;;;1.48;;
21010;SDS011;10663;42.714;23.274;2023-11-25T03:10:19;1.60;;;1.40;;
21010;SDS011;10663;42.714;23.274;2023-11-25T03:11:51;3.55;;;1.40;;
21010;SDS011;10663;42.714;23.274;2023-11-25T03:13:21;1.77;;;1.42;;
21010;SDS011;10663;42.714;23.274;2023-11-25T03:14:53;1.48;;;1.38;;
21010;SDS011;10663;42.714;23.274;2023-11-25T08:08:46;6.40;;;4.13;;
21010;SDS011;10663;42.714;23.274;2023-11-25T08:10:16;5.03;;;4.20;;
21010;SDS011;10663;42.714;23.274;2023-11-25T08:11:48;4.20;;;3.80;;
21010;SDS011;10663;42.714;23.274;2023-11-25T08:13:18;4.43;;;3.70;;
21010;SDS011;10663;42.714;23.274;2023-11-25T08:14:50;6.90;;;4.10;;
21010;SDS011;10663;42.714;23.274;2023-11-25T08:16:21;5.23;;;3.73;;
21010;SDS011;10663;42.714;23.274;2023-11-25T08:17:52;4.33;;;3.93;;
21010;SDS011;10663;42.714;23.274;2023-11-25T08:19:25;8.40;;;4.20;;
21010;SDS011;10663;42.714;23.274;2023-11-25T08:20:57;5.90;;;4.40;;
21010;SDS011;10663;42.714;23.274;2023-11-25T08:22:27;4.50;;;3.87;;
21010;SDS011;10663;42.714;23.274;2023-11-25T08:23:58;5.70;;;4.33;;
21010;SDS011;10663;42.714;23.274;2023-11-25T08:25:30;5.47;;;3.60;;
21010;SDS011;10663;42.714;23.274;2023-11-25T08:27:01;5.17;;;4.03;;
21010;SDS011;10663;42.714;23.274;2023-11-25T08:28:31;6.17;;;4.77;;
21010;SDS011;10663;42.714;23.274;2023-11-25T08:30:03;9.43;;;4.67;;
21010;SDS011;10663;42.714;23.274;2023-11-25T08:31:38;3.80;;;3.03;;
21010;SDS011;10663;42.714;23.274;2023-11-25T08:33:09;3.13;;;2.73;;
21010;SDS011;10663;42.714;23.274;2023-11-25T08:34:40;6.77;;;3.97;;
21010;SDS011;10663;42.714;23.274;2023-11-25T08:36:11;3.43;;;2.90;;
21010;SDS011;10663;42.714;23.274;2023-11-25T08:37:42;3.33;;;2.50;;
21010;SDS011;10663;42.714;23.274;2023-11-25T08:39:13;4.77;;;2.23;;
21010;SDS011;10663;42.714;23.274;2023-11-25T08:40:44;2.90;;;2.30;;
21010;SDS011;10663;42.714;23.274;2023-11-25T08:42:15;2.10;;;1.90;;
21010;SDS011;10663;42.714;23.274;2023-11-25T08:43:46;7.13;;;2.50;;
21010;SDS011;10663;42.714;23.274;2023-11-25T08:45:17;2.80;;;2.37;;
21010;SDS011;10663;42.714;23.274;2023-11-25T08:46:49;2.83;;;2.63;;
21010;SDS011;10663;42.714;23.274;2023-11-25T10:56:52;5.95;;;5.07;;
21010;SDS011;10663;42.714;23.274;2023-11-25T10:58:25;5.95;;;4.78;;
21010;SDS011;10663;42.714;23.274;2023-11-25T10:59:57;5.97;;;5.35;;
21010;SDS011;10663;42.714;23.274;2023-11-25T11:01:30;6.90;;;5.70;;
21010;SDS011;10663;42.714;23.274;2023-11-25T11:03:03;6.20;;;5.30;;
21010;SDS011;10663;42.714;23.274;2023-11-25T11:04:39;6.80;;;5.60;;
21010;SDS011;10663;42.714;23.274;2023-11-25T11:06:20;6.60;;;5.20;;
21010;SDS011;10663;42.714;23.274;2023-11-25T11:07:56;5.30;;;4.70;;
21010;SDS011;10663;42.714;23.274;2023-11-25T11:09:52;15.30;;;10.93;;
21010;SDS011;10663;42.714;23.274;2023-11-25T11:11:30;16.70;;;11.73;;
21010;SDS011;10663;42.714;23.274;2023-11-25T11:13:18;10.95;;;7.05;;
21010;SDS011;10663;42.714;23.274;2023-11-25T11:15:01;6.85;;;5.32;;
21010;SDS011;10663;42.714;23.274;2023-11-25T11:19:49;16.13;;;8.75;;
21010;SDS011;10663;42.714;23.274;2023-11-25T11:21:21;8.50;;;6.70;;
21010;SDS011;10663;42.714;23.274;2023-11-25T11:22:58;7.68;;;6.25;;
21010;SDS011;10663;42.714;23.274;2023-11-25T11:24:32;6.75;;;6.10;;
21010;SDS011;10663;42.714;23.274;2023-11-25T11:26:31;7.80;;;6.38;;
21010;SDS011;10663;42.714;23.274;2023-11-25T11:32:12;6.07;;;5.23;;
21010;SDS011;10663;42.714;23.274;2023-11-25T11:33:44;7.30;;;6.03;;
21010;SDS011;10663;42.714;23.274;2023-11-25T11:35:17;8.30;;;6.40;;
21010;SDS011;10663;42.714;23.274;2023-11-25T11:36:51;6.00;;;5.40;;
21010;SDS011;10663;42.714;23.274;2023-11-25T11:38:23;5.97;;;5.45;;
21010;SDS011;10663;42.714;23.274;2023-11-25T11:39:55;7.07;;;6.37;;
21010;SDS011;10663;42.714;23.274;2023-11-25T11:41:30;5.65;;;5.05;;
21010;SDS011;10663;42.714;23.274;2023-11-25T11:43:02;6.38;;;5.50;;
21010;SDS011;10663;42.714;23.274;2023-11-25T11:44:35;5.18;;;4.65;;
21010;SDS011;10663;42.714;23.274;2023-11-25T11:46:05;5.85;;;5.03;;
21010;SDS011;10663;42.714;23.274;2023-11-25T11:47:39;5.63;;;4.47;;
21010;SDS011;10663;42.714;23.274;2023-11-25T11:49:11;4.38;;;3.72;;
21010;SDS011;10663;42.714;23.274;2023-11-25T11:50:42;4.40;;;4.00;;
21010;SDS011;10663;42.714;23.274;2023-11-25T11:53:45;5.13;;;4.40;;
21010;SDS011;10663;42.714;23.274;2023-11-25T11:55:57;5.40;;;4.72;;
21010;SDS011;10663;42.714;23.274;2023-11-25T11:57:28;5.70;;;4.68;;
21010;SDS011;10663;42.714;23.274;2023-11-25T11:58:59;5.23;;;4.37;;
21010;SDS011;10663;42.714;23.274;2023-11-25T12:00:40;5.65;;;5.05;;
21010;SDS011;10663;42.714;23.274;2023-11-25T12:02:30;6.68;;;4.85;;
21010;SDS011;10663;42.714;23.274;2023-11-25T12:04:01;6.60;;;5.30;;
21010;SDS011;10663;42.714;23.274;2023-11-25T12:05:32;5.40;;;4.90;;
21010;SDS011;10663;42.714;23.274;2023-11-25T12:07:03;5.72;;;5.10;;
21010;SDS011;10663;42.714;23.274;2023-11-25T12:08:34;6.97;;;5.78;;
21010;SDS011;10663;42.714;23.274;2023-11-25T12:37:32;6.07;;;4.93;;
21010;SDS011;10663;42.714;23.274;2023-11-25T12:39:04;6.13;;;5.50;;
21010;SDS011;10663;42.714;23.274;2023-11-25T12:40:42;6.10;;;5.50;;
21010;SDS011;10663;42.714;23.274;2023-11-25T12:42:16;6.53;;;5.63;;
21010;SDS011;10663;42.714;23.274;2023-11-25T12:44:08;7.57;;;6.40;;
21010;SDS011;10663;42.714;23.274;2023-11-25T12:45:43;6.05;;;5.45;;
21010;SDS011;10663;42.714;23.274;2023-11-25T12:47:15;6.78;;;5.28;;
21010;SDS011;10663;42.714;23.274;2023-11-25T12:48:46;5.60;;;5.10;;
21010;SDS011;10663;42.714;23.274;2023-11-25T12:50:17;6.45;;;5.50;;
21010;SDS011;10663;42.714;23.274;2023-11-25T12:51:50;5.30;;;4.80;;
21010;SDS011;10663;42.714;23.274;2023-11-25T13:48:31;13.47;;;11.40;;
21010;SDS011;10663;42.714;23.274;2023-11-25T13:50:03;17.48;;;13.63;;
21010;SDS011;10663;42.714;23.274;2023-11-25T13:51:34;21.30;;;15.13;;
